createdAt,value
2022-11-24T00:01:08.087Z,100410.38
2022-11-24T00:03:34.787Z,100417.16
2022-11-24T00:06:10.931Z,100407.78
2022-11-24T00:08:39.335Z,100400.06
2022-11-24T00:11:12.265Z,100407.63
2022-11-24T00:13:39.409Z,100417.81
2022-11-24T00:16:35.698Z,100432.25
2022-11-24T00:19:04.935Z,100443.28
2022-11-24T00:21:32.499Z,100431.44
2022-11-24T00:23:59.636Z,100441.59
2022-11-24T00:26:31.929Z,100440.81
2022-11-24T00:29:01.269Z,100435.75
2022-11-24T00:31:29.237Z,100442.63
2022-11-24T00:33:58.687Z,100440.13
2022-11-24T00:36:27.568Z,100444.44
2022-11-24T00:38:55.895Z,100441.91
2022-11-24T00:41:23.990Z,100435.97
2022-11-24T00:43:50.935Z,100434.22
2022-11-24T00:46:17.669Z,100437.59
2022-11-24T00:48:44.261Z,100441.88
2022-11-24T00:51:12.932Z,100445.34
2022-11-24T00:53:39.899Z,100448.78
2022-11-24T00:56:07.170Z,100451.44
2022-11-24T00:58:34.576Z,100453.16
2022-11-24T01:01:05.170Z,100454.94
2022-11-24T01:03:32.308Z,100463.47
2022-11-24T01:06:19.382Z,100466.91
2022-11-24T01:08:46.260Z,100466.94
2022-11-24T01:11:54.584Z,100467.91
2022-11-24T01:14:23.468Z,100467.91
2022-11-24T01:16:50.379Z,100459.47
2022-11-24T01:19:17.011Z,100468.00
2022-11-24T01:21:43.519Z,100475.72
2022-11-24T01:24:11.269Z,100481.69
2022-11-24T01:26:37.911Z,100483.34
2022-11-24T01:29:04.522Z,100485.16
2022-11-24T01:31:32.758Z,100477.56
2022-11-24T01:33:59.425Z,100483.53
2022-11-24T01:36:26.084Z,100487.81
2022-11-24T01:38:52.724Z,100480.16
2022-11-24T01:41:25.290Z,100483.56
2022-11-24T01:43:54.144Z,100476.84
2022-11-24T01:46:23.740Z,100484.47
2022-11-24T01:49:01.932Z,100490.41
2022-11-24T01:51:31.966Z,100488.66
2022-11-24T01:54:29.508Z,100494.50
2022-11-24T01:57:01.153Z,100494.47
2022-11-24T01:59:28.341Z,100496.06
2022-11-24T02:01:56.787Z,100503.59
2022-11-24T02:04:29.849Z,100505.22
2022-11-24T02:07:00.001Z,100502.59
2022-11-24T02:09:34.981Z,100497.38
2022-11-24T02:12:02.545Z,100500.63
2022-11-24T02:14:29.173Z,100498.84
2022-11-24T02:16:55.851Z,100501.28
2022-11-24T02:19:35.722Z,100504.53
2022-11-24T02:22:04.226Z,100511.19
2022-11-24T02:24:41.321Z,100509.47
2022-11-24T02:27:10.187Z,100513.66
2022-11-24T02:29:37.477Z,100512.66
2022-11-24T02:32:07.420Z,100514.31
2022-11-24T02:34:34.447Z,100517.69
2022-11-24T02:37:01.373Z,100515.91
2022-11-24T02:39:27.997Z,100518.47
2022-11-24T02:41:59.229Z,100531.16
2022-11-24T02:44:30.671Z,100524.34
2022-11-24T02:47:09.077Z,100530.25
2022-11-24T02:49:36.415Z,100528.56
2022-11-24T02:52:03.760Z,100531.97
2022-11-24T02:54:30.381Z,100532.88
2022-11-24T02:56:57.145Z,100528.66
2022-11-24T02:59:24.020Z,100531.19
2022-11-24T03:01:53.741Z,100533.66
2022-11-24T03:04:20.309Z,100540.38
2022-11-24T03:06:46.996Z,100529.25
2022-11-24T03:09:13.594Z,100526.69
2022-11-24T03:11:40.239Z,100517.31
2022-11-24T03:14:07.164Z,100520.72
2022-11-24T03:16:33.845Z,100526.63
2022-11-24T03:19:00.897Z,100533.47
2022-11-24T03:21:27.497Z,100539.34
2022-11-24T03:23:54.337Z,100538.50
2022-11-24T03:26:26.994Z,100539.31
2022-11-24T03:28:55.842Z,100533.28
2022-11-24T03:31:23.409Z,100530.75
2022-11-24T03:33:50.157Z,100545.13
2022-11-24T03:36:16.912Z,100540.91
2022-11-24T03:38:43.933Z,100546.84
2022-11-24T03:41:11.098Z,100546.84
2022-11-24T03:43:43.256Z,100539.31
2022-11-24T03:46:10.974Z,100541.03
2022-11-24T03:48:37.683Z,100550.34
2022-11-24T03:51:04.533Z,100547.00
2022-11-24T03:53:33.636Z,100552.94
2022-11-24T03:56:02.008Z,100556.22
2022-11-24T03:58:29.317Z,100554.59
2022-11-24T04:00:56.360Z,100555.44
2022-11-24T04:03:23.711Z,100558.03
2022-11-24T04:05:50.329Z,100558.88
2022-11-24T04:08:18.310Z,100560.53
2022-11-24T04:10:44.977Z,100558.81
2022-11-24T04:13:15.307Z,100572.44
2022-11-24T04:15:43.190Z,100573.22
2022-11-24T04:18:11.228Z,100574.03
2022-11-24T04:20:38.469Z,100578.31
2022-11-24T04:23:05.230Z,100578.34
2022-11-24T04:25:32.420Z,100589.44
2022-11-24T04:27:59.136Z,100584.34
2022-11-24T04:30:27.617Z,100597.09
2022-11-24T04:32:54.233Z,100589.44
2022-11-24T04:35:21.508Z,100600.53
2022-11-24T04:37:48.093Z,100602.22
2022-11-24T04:40:14.961Z,100601.31
2022-11-24T04:42:41.526Z,100603.00
2022-11-24T04:45:08.586Z,100606.44
2022-11-24T04:47:35.344Z,100618.31
2022-11-24T04:50:01.858Z,100629.34
2022-11-24T04:52:30.308Z,100630.19
2022-11-24T04:54:56.866Z,100626.78
2022-11-24T04:57:26.037Z,100641.28
2022-11-24T04:59:53.692Z,100648.88
2022-11-24T05:02:21.331Z,100648.88
2022-11-24T05:04:48.186Z,100648.06
2022-11-24T05:07:18.710Z,100656.63
2022-11-24T05:10:04.440Z,100662.56
2022-11-24T05:12:31.520Z,100671.06
2022-11-24T05:14:59.441Z,100669.34
2022-11-24T05:17:34.452Z,100676.16
2022-11-24T05:20:01.060Z,100683.00
2022-11-24T05:22:29.785Z,100689.84
2022-11-24T05:24:56.263Z,100682.28
2022-11-24T05:27:23.559Z,100688.28
2022-11-24T05:29:50.091Z,100697.69
2022-11-24T05:32:17.671Z,100697.75
2022-11-24T05:34:44.228Z,100702.06
2022-11-24T05:37:13.400Z,100708.03
2022-11-24T05:39:39.911Z,100708.16
2022-11-24T05:42:26.533Z,100716.69
2022-11-24T05:44:53.983Z,100721.03
2022-11-24T05:47:21.536Z,100725.31
2022-11-24T05:49:48.244Z,100732.16
2022-11-24T05:52:15.902Z,100734.75
2022-11-24T05:54:42.530Z,100739.03
2022-11-24T05:57:09.036Z,100745.00
2022-11-24T05:59:35.681Z,100759.44
2022-11-24T06:02:02.428Z,100752.72
2022-11-24T06:04:29.026Z,100761.19
2022-11-24T06:06:55.667Z,100762.09
2022-11-24T06:09:22.262Z,100768.91
2022-11-24T06:11:49.042Z,100767.25
2022-11-24T06:14:15.598Z,100776.56
2022-11-24T06:16:42.508Z,100788.47
2022-11-24T06:19:10.529Z,100791.03
2022-11-24T06:21:37.284Z,100791.03
2022-11-24T06:24:04.829Z,100795.28
2022-11-24T06:26:31.818Z,100808.00
2022-11-24T06:28:58.322Z,100808.88
2022-11-24T06:31:25.050Z,100814.78
2022-11-24T06:33:51.660Z,100820.72
2022-11-24T06:36:18.208Z,100818.19
2022-11-24T06:38:44.771Z,100833.50
2022-11-24T06:41:14.053Z,100842.00
2022-11-24T06:43:41.065Z,100847.97
2022-11-24T06:46:08.065Z,100842.88
2022-11-24T06:48:34.930Z,100851.41
2022-11-24T06:51:03.660Z,100859.91
2022-11-24T06:53:38.657Z,100857.44
2022-11-24T06:56:10.710Z,100859.16
2022-11-24T06:58:42.511Z,100864.28
2022-11-24T07:01:09.604Z,100871.13
2022-11-24T07:03:36.333Z,100871.97
2022-11-24T07:06:02.995Z,100885.59
2022-11-24T07:08:29.653Z,100887.31
2022-11-24T07:10:56.177Z,100888.97
2022-11-24T07:13:22.713Z,100900.88
2022-11-24T07:15:49.251Z,100908.50
2022-11-24T07:18:15.774Z,100905.06
2022-11-24T07:20:42.323Z,100913.56
2022-11-24T07:23:09.257Z,100921.16
2022-11-24T07:25:35.810Z,100927.91
2022-11-24T07:28:02.416Z,100927.06
2022-11-24T07:30:29.020Z,100927.03
2022-11-24T07:33:01.424Z,100922.81
2022-11-24T07:35:31.062Z,100926.22
2022-11-24T07:37:58.537Z,100930.44
2022-11-24T07:40:26.890Z,100944.88
2022-11-24T07:42:54.299Z,100946.56
2022-11-24T07:45:21.330Z,100954.16
2022-11-24T07:47:48.117Z,100952.44
2022-11-24T07:50:15.000Z,100949.88
2022-11-24T07:52:41.545Z,100961.75
2022-11-24T07:55:08.631Z,100970.19
2022-11-24T07:57:35.428Z,100970.19
2022-11-24T08:00:05.792Z,100976.97
2022-11-24T08:02:33.757Z,100991.38
2022-11-24T08:05:00.324Z,100997.31
2022-11-24T08:07:27.191Z,101009.16
2022-11-24T08:09:53.882Z,101003.19
2022-11-24T08:12:23.259Z,101010.78
2022-11-24T08:14:50.784Z,101011.63
2022-11-24T08:17:18.296Z,101014.13
2022-11-24T08:19:44.992Z,101020.03
2022-11-24T08:22:11.557Z,101022.53
2022-11-24T08:24:38.441Z,101014.91
2022-11-24T08:27:05.289Z,101014.84
2022-11-24T08:29:32.000Z,101020.75
2022-11-24T08:31:58.738Z,101026.69
2022-11-24T08:34:28.032Z,101021.59
2022-11-24T08:36:54.702Z,101038.59
2022-11-24T08:39:21.353Z,101036.03
2022-11-24T08:41:48.019Z,101031.72
2022-11-24T08:44:16.032Z,101041.03
2022-11-24T08:46:42.770Z,101041.00
2022-11-24T08:49:09.903Z,101043.53
2022-11-24T08:51:36.930Z,101040.16
2022-11-24T08:54:03.872Z,101046.97
2022-11-24T08:56:32.217Z,101059.72
2022-11-24T08:58:59.455Z,101058.06
2022-11-24T09:01:27.352Z,101067.44
2022-11-24T09:03:54.149Z,101060.69
2022-11-24T09:06:23.859Z,101064.94
2022-11-24T09:08:51.735Z,101074.25
2022-11-24T09:11:19.058Z,101070.00
2022-11-24T09:13:46.056Z,101074.25
2022-11-24T09:16:16.045Z,101086.81
2022-11-24T09:18:43.049Z,101086.75
2022-11-24T09:21:17.633Z,101091.72
2022-11-24T09:23:45.629Z,101087.38
2022-11-24T09:26:18.605Z,101088.09
2022-11-24T09:28:46.008Z,101092.22
2022-11-24T09:31:14.944Z,101094.66
2022-11-24T09:33:41.622Z,101098.75
2022-11-24T09:36:08.844Z,101099.50
2022-11-24T09:38:35.545Z,101116.34
2022-11-24T09:41:35.699Z,101111.94
2022-11-24T09:44:16.339Z,101104.19
2022-11-24T09:47:14.875Z,101111.72
2022-11-24T09:50:04.545Z,101125.19
2022-11-24T09:53:03.860Z,101125.88
2022-11-24T09:55:52.323Z,101136.00
2022-11-24T09:58:37.001Z,101136.72
2022-11-24T10:01:19.125Z,101134.88
2022-11-24T10:03:49.593Z,101140.81
2022-11-24T10:06:19.521Z,101143.28
2022-11-24T10:09:09.255Z,101138.81
2022-11-24T10:11:46.816Z,101139.53
2022-11-24T10:14:30.159Z,101152.13
2022-11-24T10:17:35.231Z,101147.66
2022-11-24T10:20:16.744Z,101161.22
2022-11-24T10:22:43.140Z,101164.00
2022-11-24T10:25:15.549Z,101166.84
2022-11-24T10:27:46.718Z,101172.97
2022-11-24T10:30:26.293Z,101175.44
2022-11-24T10:33:04.002Z,101177.91
2022-11-24T10:35:38.347Z,101178.72
2022-11-24T10:38:32.059Z,101182.81
2022-11-24T10:41:20.263Z,101189.41
2022-11-24T10:43:46.791Z,101186.59
2022-11-24T10:46:26.132Z,101191.56
2022-11-24T10:49:05.169Z,101199.06
2022-11-24T10:51:51.243Z,101199.78
2022-11-24T10:54:22.807Z,101186.91
2022-11-24T10:56:54.740Z,101203.81
2022-11-24T10:59:25.690Z,101208.84
2022-11-24T11:01:56.049Z,101202.75
2022-11-24T11:04:29.461Z,101201.72
2022-11-24T11:07:19.693Z,101204.19
2022-11-24T11:09:47.743Z,101208.56
2022-11-24T11:12:45.698Z,101207.09
2022-11-24T11:15:32.594Z,101216.75
2022-11-24T11:18:01.284Z,101208.19
2022-11-24T11:20:31.581Z,101213.94
2022-11-24T11:23:01.823Z,101212.16
2022-11-24T11:25:33.181Z,101205.16
2022-11-24T11:28:18.782Z,101200.69
2022-11-24T11:31:17.204Z,101210.00
2022-11-24T11:34:09.512Z,101210.84
2022-11-24T11:36:47.648Z,101209.88
2022-11-24T11:39:25.457Z,101207.28
2022-11-24T11:42:01.231Z,101203.69
2022-11-24T11:44:37.320Z,101202.75
2022-11-24T11:47:15.755Z,101206.94
2022-11-24T11:49:42.411Z,101206.09
2022-11-24T11:52:24.137Z,101201.75
2022-11-24T11:55:20.333Z,101209.34
2022-11-24T11:58:05.594Z,101210.00
2022-11-24T12:00:38.291Z,101207.16
2022-11-24T12:03:34.153Z,101207.00
2022-11-24T12:06:25.094Z,101210.28
2022-11-24T12:09:22.492Z,101215.25
2022-11-24T12:12:01.246Z,101210.75
2022-11-24T12:14:30.728Z,101214.97
2022-11-24T12:17:32.557Z,101206.44
2022-11-24T12:20:41.332Z,101204.72
2022-11-24T12:23:41.824Z,101204.56
2022-11-24T12:26:30.180Z,101213.75
2022-11-24T12:29:02.486Z,101212.91
2022-11-24T12:31:58.262Z,101216.41
2022-11-24T12:34:39.964Z,101204.38
2022-11-24T12:37:22.903Z,101211.97
2022-11-24T12:40:12.858Z,101215.22
2022-11-24T12:42:48.520Z,101214.28
2022-11-24T12:45:18.071Z,101227.22
2022-11-24T12:48:04.575Z,101224.69
2022-11-24T12:50:37.350Z,101231.66
2022-11-24T12:53:12.725Z,101238.81
2022-11-24T12:55:40.932Z,101244.97
2022-11-24T12:58:12.355Z,101237.50
2022-11-24T13:01:23.553Z,101239.22
2022-11-24T13:04:02.132Z,101239.00
2022-11-24T13:06:47.485Z,101229.41
2022-11-24T13:09:15.855Z,101231.28
2022-11-24T13:11:45.641Z,101227.88
2022-11-24T13:14:16.014Z,101230.38
2022-11-24T13:17:28.197Z,101241.41
2022-11-24T13:19:39.151Z,101236.38
2022-11-24T13:22:08.432Z,101237.31
2022-11-24T13:24:39.959Z,101233.22
2022-11-24T13:29:56.365Z,101223.28
2022-11-24T13:32:22.901Z,101225.91
2022-11-24T13:34:55.448Z,101226.06
2022-11-24T13:37:31.151Z,101229.59
2022-11-24T13:40:14.394Z,101228.88
2022-11-24T13:42:56.494Z,101230.66
2022-11-24T13:45:49.743Z,101229.81
2022-11-24T13:48:19.566Z,101227.25
2022-11-24T13:50:58.564Z,101226.47
2022-11-24T13:53:40.354Z,101223.09
2022-11-24T13:56:12.929Z,101226.50
2022-11-24T13:58:55.941Z,101229.13
2022-11-24T14:01:33.110Z,101229.16
2022-11-24T14:04:42.891Z,101226.66
2022-11-24T14:07:08.406Z,101226.69
2022-11-24T14:09:44.867Z,101221.66
2022-11-24T14:12:17.701Z,101224.25
2022-11-24T14:14:46.093Z,101226.84
2022-11-24T14:17:22.802Z,101224.34
2022-11-24T14:19:52.135Z,101218.41
2022-11-24T14:22:34.301Z,101222.72
2022-11-24T14:25:02.245Z,101214.28
2022-11-24T14:27:37.877Z,101221.19
2022-11-24T14:30:17.017Z,101202.50
2022-11-24T14:32:58.036Z,101208.56
2022-11-24T14:35:26.298Z,101214.66
2022-11-24T14:37:53.409Z,101216.47
2022-11-24T14:40:43.879Z,101218.22
2022-11-24T14:43:24.271Z,101224.31
2022-11-24T14:46:02.578Z,101219.31
2022-11-24T14:48:33.510Z,101216.88
2022-11-24T14:51:24.068Z,101228.09
2022-11-24T14:53:57.287Z,101221.41
2022-11-24T14:56:36.917Z,101219.78
2022-11-24T14:59:18.421Z,101219.06
2022-11-24T15:01:45.141Z,101221.69
2022-11-24T15:04:22.066Z,101219.19
2022-11-24T15:07:04.264Z,101217.56
2022-11-24T15:09:49.614Z,101220.25
2022-11-24T15:12:28.687Z,101232.25
2022-11-24T15:15:00.507Z,101231.53
2022-11-24T15:17:29.265Z,101229.94
2022-11-24T15:20:01.059Z,101234.28
2022-11-24T15:22:39.821Z,101228.38
2022-11-24T15:25:33.635Z,101236.13
2022-11-24T15:28:00.874Z,101242.13
2022-11-24T15:30:28.657Z,101241.34
2022-11-24T15:32:57.506Z,101241.41
2022-11-24T15:35:26.035Z,101246.56
2022-11-24T15:37:53.075Z,101246.63
2022-11-24T15:40:19.742Z,101250.09
2022-11-24T15:42:51.536Z,101243.41
2022-11-24T15:45:19.359Z,101246.06
2022-11-24T15:47:49.086Z,101247.84
2022-11-24T15:50:16.429Z,101241.91
2022-11-24T15:52:44.180Z,101237.75
2022-11-24T15:55:22.420Z,101237.00
2022-11-24T15:57:49.587Z,101242.97
2022-11-24T16:00:21.972Z,101244.72
2022-11-24T16:02:49.418Z,101238.88
2022-11-24T16:05:17.687Z,101235.53
2022-11-24T16:07:44.785Z,101244.06
2022-11-24T16:10:37.808Z,101240.66
2022-11-24T16:13:04.371Z,101235.63
2022-11-24T16:15:30.955Z,101245.88
2022-11-24T16:17:57.865Z,101245.03
2022-11-24T16:20:24.455Z,101240.81
2022-11-24T16:22:51.341Z,101234.03
2022-11-24T16:25:18.037Z,101239.13
2022-11-24T16:27:44.695Z,101234.09
2022-11-24T16:30:12.905Z,101240.03
2022-11-24T16:32:39.517Z,101246.00
2022-11-24T16:35:06.288Z,101249.44
2022-11-24T16:37:33.044Z,101246.88
2022-11-24T16:40:01.675Z,101251.97
2022-11-24T16:42:31.275Z,101251.97
2022-11-24T16:44:57.832Z,101256.25
2022-11-24T16:47:24.704Z,101257.97
2022-11-24T16:49:51.237Z,101252.91
2022-11-24T16:52:18.595Z,101248.69
2022-11-24T16:54:46.557Z,101240.19
2022-11-24T16:57:15.110Z,101246.13
2022-11-24T16:59:43.400Z,101243.59
2022-11-24T17:02:12.378Z,101248.69
2022-11-24T17:04:38.994Z,101250.44
2022-11-24T17:07:05.843Z,101247.03
2022-11-24T17:09:38.871Z,101247.06
2022-11-24T17:12:07.115Z,101241.16
2022-11-24T17:14:33.933Z,101240.31
2022-11-24T17:17:00.873Z,101244.56
2022-11-24T17:19:29.568Z,101242.03
2022-11-24T17:21:56.218Z,101245.41
2022-11-24T17:24:22.766Z,101244.56
2022-11-24T17:26:51.379Z,101240.28
2022-11-24T17:29:18.939Z,101238.50
2022-11-24T17:31:46.107Z,101254.63
2022-11-24T17:34:13.277Z,101250.38
2022-11-24T17:36:41.488Z,101252.94
2022-11-24T17:39:08.147Z,101249.53
2022-11-24T17:41:34.945Z,101242.75
2022-11-24T17:44:01.505Z,101249.56
2022-11-24T17:46:29.843Z,101252.97
2022-11-24T17:48:59.597Z,101249.63
2022-11-24T17:51:26.877Z,101246.25
2022-11-24T17:53:55.009Z,101259.00
2022-11-24T17:56:27.136Z,101253.97
2022-11-24T17:58:59.058Z,101253.97
2022-11-24T18:01:28.591Z,101250.56
2022-11-24T18:03:55.558Z,101240.34
2022-11-24T18:06:25.627Z,101248.00
2022-11-24T18:08:54.271Z,101242.88
2022-11-24T18:11:30.617Z,101247.13
2022-11-24T18:14:02.937Z,101251.34
2022-11-24T18:16:33.553Z,101257.25
2022-11-24T18:19:11.319Z,101258.09
2022-11-24T18:21:40.434Z,101265.72
2022-11-24T18:24:11.968Z,101261.44
2022-11-24T18:26:42.169Z,101256.34
2022-11-24T18:29:10.111Z,101254.66
2022-11-24T18:31:37.453Z,101247.88
2022-11-24T18:34:05.994Z,101241.94
2022-11-24T18:36:33.571Z,101236.84
2022-11-24T18:39:02.213Z,101240.25
2022-11-24T18:41:28.837Z,101236.03
2022-11-24T18:43:55.481Z,101233.47
2022-11-24T18:46:22.304Z,101236.03
2022-11-24T18:48:51.463Z,101232.66
2022-11-24T18:51:18.706Z,101239.44
2022-11-24T18:53:49.530Z,101232.69
2022-11-24T18:56:21.659Z,101233.56
2022-11-24T18:58:48.247Z,101240.38
2022-11-24T19:01:20.063Z,101241.25
2022-11-24T19:03:49.558Z,101236.16
2022-11-24T19:06:36.972Z,101234.47
2022-11-24T19:09:11.654Z,101231.09
2022-11-24T19:11:40.143Z,101225.13
2022-11-24T19:14:09.004Z,101226.88
2022-11-24T19:16:35.760Z,101223.47
2022-11-24T19:19:03.171Z,101230.31
2022-11-24T19:21:40.287Z,101222.66
2022-11-24T19:24:10.208Z,101220.13
2022-11-24T19:26:38.077Z,101212.50
2022-11-24T19:29:06.069Z,101216.78
2022-11-24T19:31:33.466Z,101209.16
2022-11-24T19:34:00.251Z,101209.16
2022-11-24T19:36:29.157Z,101202.34
2022-11-24T19:38:57.317Z,101209.97
2022-11-24T19:41:26.725Z,101202.34
2022-11-24T19:43:53.650Z,101207.47
2022-11-24T19:46:21.601Z,101204.94
2022-11-24T19:48:50.591Z,101207.53
2022-11-24T19:51:25.704Z,101214.31
2022-11-24T19:53:55.373Z,101216.03
2022-11-24T19:56:27.679Z,101221.13
2022-11-24T19:58:55.423Z,101216.06
2022-11-24T20:01:24.750Z,101221.97
2022-11-24T20:04:00.375Z,101227.09
2022-11-24T20:06:29.141Z,101227.94
2022-11-24T20:08:57.684Z,101225.44
2022-11-24T20:11:24.446Z,101231.38
2022-11-24T20:13:51.829Z,101223.75
2022-11-24T20:16:26.143Z,101219.53
2022-11-24T20:18:55.112Z,101222.06
2022-11-24T20:21:24.809Z,101219.53
2022-11-24T20:23:59.377Z,101217.84
2022-11-24T20:26:28.389Z,101224.63
2022-11-24T20:28:56.765Z,101222.94
2022-11-24T20:31:30.067Z,101212.75
2022-11-24T20:33:57.625Z,101204.31
2022-11-24T20:36:26.616Z,101211.94
2022-11-24T20:38:54.257Z,101211.91
2022-11-24T20:41:26.733Z,101214.44
2022-11-24T20:43:55.623Z,101216.13
2022-11-24T20:46:29.035Z,101220.34
2022-11-24T20:48:56.439Z,101211.84
2022-11-24T20:51:25.757Z,101205.03
2022-11-24T20:53:55.249Z,101209.28
2022-11-24T20:56:26.572Z,101210.91
2022-11-24T20:58:56.471Z,101216.81
2022-11-24T21:01:29.570Z,101209.13
2022-11-24T21:03:59.612Z,101208.28
2022-11-24T21:06:28.237Z,101211.66
2022-11-24T21:09:00.480Z,101207.38
2022-11-24T21:11:33.320Z,101205.66
2022-11-24T21:14:01.498Z,101205.63
2022-11-24T21:16:30.884Z,101208.19
2022-11-24T21:19:03.758Z,101212.41
2022-11-24T21:21:35.837Z,101209.84
2022-11-24T21:24:06.082Z,101206.38
2022-11-24T21:26:39.455Z,101197.91
2022-11-24T21:29:06.949Z,101195.34
2022-11-24T21:31:38.521Z,101194.50
2022-11-24T21:34:06.486Z,101207.19
2022-11-24T21:36:35.071Z,101202.09
2022-11-24T21:39:03.188Z,101195.34
2022-11-24T21:41:33.010Z,101193.63
2022-11-24T21:43:59.665Z,101191.91
2022-11-24T21:46:26.224Z,101190.25
2022-11-24T21:48:52.822Z,101192.78
2022-11-24T21:51:21.084Z,101189.41
2022-11-24T21:53:50.766Z,101182.63
2022-11-24T21:56:20.045Z,101180.09
2022-11-24T21:58:52.197Z,101182.63
2022-11-24T22:01:20.490Z,101173.28
2022-11-24T22:03:47.623Z,101180.03
2022-11-24T22:06:16.704Z,101167.31
2022-11-24T22:08:43.546Z,101174.13
2022-11-24T22:11:13.819Z,101163.06
2022-11-24T22:13:42.310Z,101170.72
2022-11-24T22:16:14.768Z,101157.94
2022-11-24T22:18:43.480Z,101157.09
2022-11-24T22:21:16.385Z,101156.22
2022-11-24T22:23:43.637Z,101158.75
2022-11-24T22:26:17.680Z,101159.59
2022-11-24T22:28:45.310Z,101154.53
2022-11-24T22:31:20.863Z,101159.63
2022-11-24T22:33:48.436Z,101163.88
2022-11-24T22:36:16.543Z,101156.22
2022-11-24T22:38:43.625Z,101160.44
2022-11-24T22:41:15.553Z,101161.25
2022-11-24T22:43:43.318Z,101158.72
2022-11-24T22:46:17.986Z,101152.75
2022-11-24T22:48:45.866Z,101155.34
2022-11-24T22:51:33.113Z,101154.44
2022-11-24T22:54:03.367Z,101152.78
2022-11-24T22:56:33.342Z,101162.09
2022-11-24T22:59:01.240Z,101165.50
2022-11-24T23:01:28.985Z,101160.38
2022-11-24T23:03:55.682Z,101162.06
2022-11-24T23:06:30.596Z,101157.81
2022-11-24T23:08:58.685Z,101149.31
2022-11-24T23:11:34.942Z,101165.47
2022-11-24T23:14:03.819Z,101163.75
2022-11-24T23:16:30.752Z,101159.56
2022-11-24T23:18:57.993Z,101152.75
2022-11-24T23:21:29.680Z,101156.13
2022-11-24T23:23:58.168Z,101158.66
2022-11-24T23:26:27.952Z,101155.25
2022-11-24T23:28:54.478Z,101151.88
2022-11-24T23:31:24.398Z,101143.38
2022-11-24T23:33:51.075Z,101147.63
2022-11-24T23:36:19.167Z,101146.81
2022-11-24T23:38:46.746Z,101136.59
2022-11-24T23:41:16.901Z,101144.22
2022-11-24T23:43:44.051Z,101137.38
2022-11-24T23:46:16.319Z,101146.75
2022-11-24T23:48:43.947Z,101140.81
2022-11-24T23:51:12.357Z,101137.44
2022-11-24T23:53:39.238Z,101140.84
2022-11-24T23:56:06.352Z,101140.03
2022-11-24T23:58:36.483Z,101143.44
